Frankfort, KY (40618)

5:41 AM EST on February 09, 2016 (GMT -0500)
Capital City | | Change Station
CLOSE
Current Station
Airport
Location: Frankfort,
Elevation: 804 ft
Nearby Weather Stations
Active Advisory: Winter Weather Advisory

Elev 804 ft 38.18 °N, 84.90 °W | Updated 48 minutes ago

Light Snow
Light Snow
20 °F
Feels Like 12 °F
N
6
Wind Variable Wind from West

Today
High -- | Low -- °F
--% Chance of Precip.
Yesterday
High -- | Low -- °F
Precip. -- in
Pressure 29.78 in
Visibility 4.0 miles
Clouds Few 1700 ft
Scattered Clouds 2400 ft
Overcast 3600 ft
Windchill 12 °F
Dew Point 15 °F
Humidity 81%
Rainfall 0.00 in
Snow Depth Not available.
7:37 AM 6:10 PM
New Moon, 1% visible
METAR KFFT 090953Z AUTO 26005KT 4SM -SN FEW017 SCT024 OVC036 M07/M09 A2976 RMK AO2 SNB17 SLP084 P0000 T10671094
Pressure 29.78 in
Visibility 4.0 miles
Clouds Few 1700 ft
Scattered Clouds 2400 ft
Overcast 3600 ft
Windchill 12 °F
Dew Point 15 °F
Humidity 81%
Rainfall 0.00 in
Snow Depth Not available.
7:37 AM 6:10 PM
New Moon, 1% visible
METAR KFFT 090953Z AUTO 26005KT 4SM -SN FEW017 SCT024 OVC036 M07/M09 A2976 RMK AO2 SNB17 SLP084 P0000 T10671094

10-Day Weather Forecast

Almanac

Astronomy

Feb. 09, 2016 Rise Set
Actual Time
Civil Twilight
Nautical Twilight
Astronomical Twilight
Moon
Length of Visible Light
Length of Day
Tomorrow will be .
, % of the Moon is Illuminated

Today's Extremes

State Highs State Lows

Community

WunderPhotos

Upload Photos

1,891,565 photos uploaded!

WunderBlog® & News

Nearby

Air Quality

  Air Quality AQ Index Pollutant
Not available.

Snow Depth

Station Depth Elevation

Earthquake Activity

City Distance Mag. Time & Date
Minimum magnitude displayed is 2.5.

Coastal Water Temperatures

Place Temperature

Stations

Nearby Weather Stations

Station Location Temp. Windchill Dew Point Humidity Wind Precip. Elev Updated Type
                   

Watches & Warnings

Winter Weather Advisory
Issued: 2:23 AM CST Feb. 9, 2016 – National Weather Service

... Winter Weather Advisory now in effect until 10 am EST /9 am
CST/ Wednesday...

* timing... intermittent snow showers... the greatest intensity
expected this afternoon and early evening.

* Main impact... periods of moderate to briefly heavy snow showers
will impact travel. Roads will remain or become slick and snow
covered... especially secondary and untreated surfaces. An
additional 1 inch of accumulation is expected.

* Other impacts... gusty winds may reduce visibility at times.
Lingering moisture from Monday has frozen... creating a layer
of ice underneath the freshly fallen snow.

Precautionary/preparedness actions...

Research shows that more traffic accidents occur with an inch or
less of snow... before drivers realize that traction is reduced.
Don't become a statistic... slow down and leave extra distance
between vehicles.



Zt